Reardan, WA (99029)

4:21 AM PDT on September 01, 2015 (GMT -0700)
Four Mound Prairie | | Change Station
CLOSE
Current Station
Personal Weather Station
Location: Reardan, WA
Elevation: 2452 ft
Nearby Weather Stations

Elev 2452 ft 47.78 °N, 117.73 °W | Updated 11 seconds ago

Overcast
Overcast
51.4 °F
Feels Like 51.4 °F
N
7.6
Wind Variable Wind from South
Gusts 9.8 mph

Today
High -- | Low -- °F
--% Chance of Precip.
Yesterday
High -- | Low -- °F
Precip. -- in
6:09 AM 7:31 PM
Waning Gibbous, 89% visible
Pressure 29.87 in
Visibility 10.0 miles
Clouds Overcast 9000 ft
Dew Point 46 °F
Humidity 82%
Rainfall 0.00 in
Snow Depth Not available.
UV 0 out of 12
Pollen 7.50 out of 12
Air Quality Not available.
Flu Activity Not available.
METAR KSKA 011058Z AUTO 17010KT 10SM OVC090 11/07 A2988 RMK AO2 SLP114 T01060073
Pressure 29.87 in
Visibility 10.0 miles
Clouds Overcast 9000 ft
Dew Point 46 °F
Humidity 82%
Rainfall 0.00 in
Snow Depth Not available.
UV 0 out of 12
Pollen 7.50 out of 12
Air Quality Not available.
Flu Activity Not available.
METAR KSKA 011058Z AUTO 17010KT 10SM OVC090 11/07 A2988 RMK AO2 SLP114 T01060073

10-Day Weather Forecast

×

Almanac

Astronomy

Sep. 01, 2015 Rise Set
Actual Time
Civil Twilight
Nautical Twilight
Astronomical Twilight
Moon
Length of Visible Light
Length of Day
Tomorrow will be .
, % of the Moon is Illuminated

Today's Extremes

State Highs State Lows

Community

WunderPhotos

Upload Photos

1,851,501 photos uploaded!

WunderBlogs® & News

Nearby

Air Quality

  Air Quality AQ Index Pollutant
Not available.

Snow Depth

Station Depth Elevation

Earthquake Activity

City Distance Mag. Time & Date
Minimum magnitude displayed is 2.5.

Coastal Water Temperatures

Place Temperature

Stations

Nearby Weather Stations

Station Location Temp. Windchill Dew Point Humidity Wind Precip. Elev Updated Type